sensor_id;sensor_type;location;lat;lon;timestamp;pressure;altitude;pressure_sealevel;temperature;humidity
61678;BME280;47575;52.054;4.334;2022-10-16T00:00:21;100973.88;;;14.83;100.00
61678;BME280;47575;52.054;4.334;2022-10-16T00:02:48;100981.63;;;14.86;100.00
61678;BME280;47575;52.054;4.334;2022-10-16T00:05:15;100984.25;;;14.86;100.00
61678;BME280;47575;52.054;4.334;2022-10-16T00:07:42;100990.59;;;14.82;100.00
61678;BME280;47575;52.054;4.334;2022-10-16T00:10:09;100987.06;;;14.83;100.00
61678;BME280;47575;52.054;4.334;2022-10-16T00:12:37;100990.66;;;14.81;100.00
61678;BME280;47575;52.054;4.334;2022-10-16T00:15:04;100986.19;;;14.83;100.00
61678;BME280;47575;52.054;4.334;2022-10-16T00:17:31;100984.63;;;14.79;100.00
61678;BME280;47575;52.054;4.334;2022-10-16T00:19:58;100978.44;;;14.80;100.00
61678;BME280;47575;52.054;4.334;2022-10-16T00:22:25;100987.25;;;14.79;100.00
61678;BME280;47575;52.054;4.334;2022-10-16T00:24:52;100987.25;;;14.79;100.00
61678;BME280;47575;52.054;4.334;2022-10-16T00:27:19;100977.50;;;14.81;100.00
61678;BME280;47575;52.054;4.334;2022-10-16T00:29:50;100969.03;;;14.74;100.00
61678;BME280;47575;52.054;4.334;2022-10-16T00:32:17;100971.91;;;14.70;100.00
61678;BME280;47575;52.054;4.334;2022-10-16T00:34:44;100972.81;;;14.68;100.00
61678;BME280;47575;52.054;4.334;2022-10-16T00:37:12;100979.06;;;14.66;100.00
61678;BME280;47575;52.054;4.334;2022-10-16T00:39:39;100973.81;;;14.66;100.00
61678;BME280;47575;52.054;4.334;2022-10-16T00:42:06;100978.13;;;14.67;100.00
61678;BME280;47575;52.054;4.334;2022-10-16T00:44:44;100973.88;;;14.64;100.00
61678;BME280;47575;52.054;4.334;2022-10-16T00:47:15;100972.03;;;14.66;100.00
61678;BME280;47575;52.054;4.334;2022-10-16T00:49:43;100967.59;;;14.67;100.00
61678;BME280;47575;52.054;4.334;2022-10-16T00:52:10;100976.44;;;14.66;100.00
61678;BME280;47575;52.054;4.334;2022-10-16T00:54:37;100986.00;;;14.68;100.00
61678;BME280;47575;52.054;4.334;2022-10-16T00:57:05;100983.94;;;14.56;100.00
61678;BME280;47575;52.054;4.334;2022-10-16T00:59:33;100987.50;;;14.55;100.00
61678;BME280;47575;52.054;4.334;2022-10-16T01:02:00;100998.09;;;14.54;100.00
61678;BME280;47575;52.054;4.334;2022-10-16T01:04:30;101006.06;;;14.52;100.00
61678;BME280;47575;52.054;4.334;2022-10-16T01:07:00;101006.34;;;14.46;100.00
61678;BME280;47575;52.054;4.334;2022-10-16T01:09:30;101007.25;;;14.45;100.00
61678;BME280;47575;52.054;4.334;2022-10-16T01:12:01;101005.59;;;14.43;100.00
61678;BME280;47575;52.054;4.334;2022-10-16T01:14:32;101009.16;;;14.41;100.00
61678;BME280;47575;52.054;4.334;2022-10-16T01:17:04;101005.00;;;14.36;100.00
61678;BME280;47575;52.054;4.334;2022-10-16T01:19:44;101012.34;;;14.29;100.00
61678;BME280;47575;52.054;4.334;2022-10-16T01:22:16;101008.00;;;14.28;100.00
61678;BME280;47575;52.054;4.334;2022-10-16T01:24:45;101013.59;;;14.21;100.00
61678;BME280;47575;52.054;4.334;2022-10-16T01:27:16;101011.38;;;14.11;100.00
61678;BME280;47575;52.054;4.334;2022-10-16T01:29:48;101014.22;;;14.07;100.00
61678;BME280;47575;52.054;4.334;2022-10-16T01:32:20;101021.06;;;14.11;100.00
61678;BME280;47575;52.054;4.334;2022-10-16T01:34:50;101023.88;;;14.06;100.00
61678;BME280;47575;52.054;4.334;2022-10-16T01:37:21;101036.94;;;14.09;100.00
61678;BME280;47575;52.054;4.334;2022-10-16T01:39:49;101036.13;;;14.07;100.00
61678;BME280;47575;52.054;4.334;2022-10-16T01:42:20;101035.41;;;14.04;100.00
61678;BME280;47575;52.054;4.334;2022-10-16T01:44:48;101039.66;;;14.06;100.00
61678;BME280;47575;52.054;4.334;2022-10-16T01:47:15;101045.94;;;14.04;100.00
61678;BME280;47575;52.054;4.334;2022-10-16T01:49:43;101040.53;;;14.07;100.00
61678;BME280;47575;52.054;4.334;2022-10-16T01:52:12;101043.16;;;14.07;100.00
61678;BME280;47575;52.054;4.334;2022-10-16T01:54:41;101042.44;;;14.03;100.00
61678;BME280;47575;52.054;4.334;2022-10-16T01:57:09;101053.06;;;14.02;100.00
61678;BME280;47575;52.054;4.334;2022-10-16T01:59:39;101052.06;;;14.04;100.00
61678;BME280;47575;52.054;4.334;2022-10-16T02:02:08;101060.03;;;14.03;100.00
61678;BME280;47575;52.054;4.334;2022-10-16T02:04:38;101053.16;;;13.99;100.00
61678;BME280;47575;52.054;4.334;2022-10-16T02:07:06;101052.25;;;14.00;100.00
61678;BME280;47575;52.054;4.334;2022-10-16T02:09:33;101060.13;;;14.00;100.00
61678;BME280;47575;52.054;4.334;2022-10-16T02:12:01;101056.72;;;13.98;100.00
61678;BME280;47575;52.054;4.334;2022-10-16T02:14:31;101068.97;;;13.99;100.00
61678;BME280;47575;52.054;4.334;2022-10-16T02:16:59;101068.84;;;14.02;100.00
61678;BME280;47575;52.054;4.334;2022-10-16T02:19:26;101075.06;;;13.99;100.00
61678;BME280;47575;52.054;4.334;2022-10-16T02:21:54;101074.09;;;14.02;100.00
61678;BME280;47575;52.054;4.334;2022-10-16T02:24:23;101083.78;;;14.01;100.00
61678;BME280;47575;52.054;4.334;2022-10-16T02:26:57;101076.75;;;14.02;100.00
61678;BME280;47575;52.054;4.334;2022-10-16T02:29:27;101077.69;;;13.99;100.00
61678;BME280;47575;52.054;4.334;2022-10-16T02:31:55;101080.56;;;13.95;100.00
61678;BME280;47575;52.054;4.334;2022-10-16T02:34:26;101091.16;;;13.93;100.00
61678;BME280;47575;52.054;4.334;2022-10-16T02:36:54;101090.47;;;13.88;100.00
61678;BME280;47575;52.054;4.334;2022-10-16T02:39:23;101081.84;;;13.84;100.00
61678;BME280;47575;52.054;4.334;2022-10-16T02:41:50;101088.03;;;13.83;100.00
61678;BME280;47575;52.054;4.334;2022-10-16T02:44:17;101102.88;;;13.84;100.00
61678;BME280;47575;52.054;4.334;2022-10-16T02:46:44;101109.88;;;13.85;100.00
61678;BME280;47575;52.054;4.334;2022-10-16T02:49:11;101108.81;;;13.90;100.00
61678;BME280;47575;52.054;4.334;2022-10-16T02:51:39;101116.78;;;13.88;100.00
61678;BME280;47575;52.054;4.334;2022-10-16T02:54:06;101111.72;;;13.83;100.00
61678;BME280;47575;52.054;4.334;2022-10-16T02:56:33;101112.69;;;13.81;100.00
61678;BME280;47575;52.054;4.334;2022-10-16T02:59:00;101111.00;;;13.80;100.00
61678;BME280;47575;52.054;4.334;2022-10-16T03:01:26;101118.03;;;13.79;100.00
61678;BME280;47575;52.054;4.334;2022-10-16T03:03:53;101108.47;;;13.77;100.00
61678;BME280;47575;52.054;4.334;2022-10-16T03:06:20;101108.22;;;13.83;100.00
61678;BME280;47575;52.054;4.334;2022-10-16T03:08:49;101109.88;;;13.85;100.00
61678;BME280;47575;52.054;4.334;2022-10-16T03:11:16;101112.25;;;13.92;100.00
61678;BME280;47575;52.054;4.334;2022-10-16T03:13:43;101116.53;;;13.94;100.00
61678;BME280;47575;52.054;4.334;2022-10-16T03:16:10;101118.25;;;13.95;100.00
61678;BME280;47575;52.054;4.334;2022-10-16T03:18:36;101128.84;;;13.94;100.00
61678;BME280;47575;52.054;4.334;2022-10-16T03:21:03;101123.59;;;13.94;100.00
61678;BME280;47575;52.054;4.334;2022-10-16T03:23:30;101133.97;;;13.97;100.00
61678;BME280;47575;52.054;4.334;2022-10-16T03:25:59;101138.06;;;14.04;100.00
61678;BME280;47575;52.054;4.334;2022-10-16T03:28:26;101144.34;;;14.00;100.00
61678;BME280;47575;52.054;4.334;2022-10-16T03:30:52;101144.19;;;14.04;100.00
61678;BME280;47575;52.054;4.334;2022-10-16T03:33:19;101146.81;;;14.04;100.00
61678;BME280;47575;52.054;4.334;2022-10-16T03:35:50;101143.94;;;14.10;100.00
61678;BME280;47575;52.054;4.334;2022-10-16T03:38:17;101150.03;;;14.11;100.00
61678;BME280;47575;52.054;4.334;2022-10-16T03:40:44;101152.59;;;14.12;100.00
61678;BME280;47575;52.054;4.334;2022-10-16T03:43:12;101155.31;;;14.11;100.00
61678;BME280;47575;52.054;4.334;2022-10-16T03:45:39;101158.00;;;14.09;100.00
61678;BME280;47575;52.054;4.334;2022-10-16T03:48:06;101155.50;;;14.06;100.00
61678;BME280;47575;52.054;4.334;2022-10-16T03:50:33;101152.22;;;14.01;100.00
61678;BME280;47575;52.054;4.334;2022-10-16T03:53:00;101161.13;;;13.97;100.00
61678;BME280;47575;52.054;4.334;2022-10-16T03:55:27;101168.25;;;13.95;100.00
61678;BME280;47575;52.054;4.334;2022-10-16T03:57:54;101168.19;;;13.97;100.00
61678;BME280;47575;52.054;4.334;2022-10-16T04:00:22;101175.94;;;14.00;100.00
61678;BME280;47575;52.054;4.334;2022-10-16T04:02:49;101173.28;;;14.01;100.00
61678;BME280;47575;52.054;4.334;2022-10-16T04:05:16;101176.50;;;14.08;100.00
61678;BME280;47575;52.054;4.334;2022-10-16T04:07:43;101180.00;;;14.08;100.00
61678;BME280;47575;52.054;4.334;2022-10-16T04:10:10;101173.91;;;14.06;100.00
61678;BME280;47575;52.054;4.334;2022-10-16T04:12:37;101171.25;;;14.08;100.00
61678;BME280;47575;52.054;4.334;2022-10-16T04:15:04;101174.78;;;14.07;100.00
61678;BME280;47575;52.054;4.334;2022-10-16T04:17:32;101185.28;;;14.07;100.00
61678;BME280;47575;52.054;4.334;2022-10-16T04:19:59;101187.88;;;14.08;100.00
61678;BME280;47575;52.054;4.334;2022-10-16T04:22:26;101198.47;;;14.07;100.00
61678;BME280;47575;52.054;4.334;2022-10-16T04:24:53;101201.09;;;14.07;100.00
61678;BME280;47575;52.054;4.334;2022-10-16T04:27:20;101201.91;;;14.09;100.00
61678;BME280;47575;52.054;4.334;2022-10-16T04:29:47;101210.84;;;14.05;100.00
61678;BME280;47575;52.054;4.334;2022-10-16T04:32:14;101207.66;;;13.97;100.00
61678;BME280;47575;52.054;4.334;2022-10-16T04:34:42;101220.75;;;13.98;100.00
61678;BME280;47575;52.054;4.334;2022-10-16T04:37:09;101223.50;;;13.95;100.00
61678;BME280;47575;52.054;4.334;2022-10-16T04:39:36;101222.66;;;13.95;100.00
61678;BME280;47575;52.054;4.334;2022-10-16T04:42:03;101228.56;;;14.00;100.00
61678;BME280;47575;52.054;4.334;2022-10-16T04:44:30;101247.06;;;13.98;100.00
61678;BME280;47575;52.054;4.334;2022-10-16T04:46:57;101248.69;;;14.02;100.00
61678;BME280;47575;52.054;4.334;2022-10-16T04:49:24;101243.41;;;14.02;100.00
61678;BME280;47575;52.054;4.334;2022-10-16T04:51:52;101260.22;;;13.98;100.00
61678;BME280;47575;52.054;4.334;2022-10-16T04:54:19;101241.47;;;13.85;100.00
61678;BME280;47575;52.054;4.334;2022-10-16T04:56:46;101254.88;;;13.78;100.00
61678;BME280;47575;52.054;4.334;2022-10-16T04:59:16;101263.19;;;13.67;100.00
61678;BME280;47575;52.054;4.334;2022-10-16T05:01:43;101267.03;;;13.58;100.00
61678;BME280;47575;52.054;4.334;2022-10-16T05:04:10;101278.72;;;13.51;100.00
61678;BME280;47575;52.054;4.334;2022-10-16T05:06:37;101302.50;;;13.48;100.00
61678;BME280;47575;52.054;4.334;2022-10-16T05:09:06;101299.97;;;13.45;100.00
61678;BME280;47575;52.054;4.334;2022-10-16T05:11:33;101311.56;;;13.40;100.00
61678;BME280;47575;52.054;4.334;2022-10-16T05:14:00;101304.81;;;13.33;100.00
61678;BME280;47575;52.054;4.334;2022-10-16T05:16:27;101309.41;;;13.27;100.00
61678;BME280;47575;52.054;4.334;2022-10-16T05:18:55;101313.72;;;13.28;100.00
61678;BME280;47575;52.054;4.334;2022-10-16T05:21:22;101319.09;;;13.25;100.00
61678;BME280;47575;52.054;4.334;2022-10-16T05:23:49;101318.22;;;13.25;100.00
61678;BME280;47575;52.054;4.334;2022-10-16T05:26:17;101321.84;;;13.22;100.00
61678;BME280;47575;52.054;4.334;2022-10-16T05:28:44;101323.59;;;13.22;100.00
61678;BME280;47575;52.054;4.334;2022-10-16T05:31:11;101319.28;;;13.19;100.00
61678;BME280;47575;52.054;4.334;2022-10-16T05:33:38;101326.28;;;13.20;100.00
61678;BME280;47575;52.054;4.334;2022-10-16T05:36:06;101336.00;;;13.17;100.00
61678;BME280;47575;52.054;4.334;2022-10-16T05:38:34;101329.91;;;13.16;100.00
61678;BME280;47575;52.054;4.334;2022-10-16T05:41:01;101335.16;;;13.16;100.00
61678;BME280;47575;52.054;4.334;2022-10-16T05:43:29;101332.53;;;13.16;100.00
61678;BME280;47575;52.054;4.334;2022-10-16T05:45:57;101328.13;;;13.17;100.00
61678;BME280;47575;52.054;4.334;2022-10-16T05:48:24;101334.25;;;13.17;100.00
61678;BME280;47575;52.054;4.334;2022-10-16T05:50:57;101336.06;;;13.15;100.00
61678;BME280;47575;52.054;4.334;2022-10-16T05:53:24;101335.22;;;13.15;100.00
61678;BME280;47575;52.054;4.334;2022-10-16T05:55:52;101337.00;;;13.14;100.00
61678;BME280;47575;52.054;4.334;2022-10-16T05:58:20;101341.44;;;13.12;100.00
61678;BME280;47575;52.054;4.334;2022-10-16T06:00:53;101355.50;;;13.11;100.00
61678;BME280;47575;52.054;4.334;2022-10-16T06:03:20;101339.75;;;13.10;100.00
61678;BME280;47575;52.054;4.334;2022-10-16T06:05:47;101339.81;;;13.08;100.00
61678;BME280;47575;52.054;4.334;2022-10-16T06:08:14;101349.34;;;13.11;100.00
61678;BME280;47575;52.054;4.334;2022-10-16T06:10:41;101337.13;;;13.10;100.00
61678;BME280;47575;52.054;4.334;2022-10-16T06:13:09;101341.53;;;13.09;100.00
61678;BME280;47575;52.054;4.334;2022-10-16T06:15:36;101342.44;;;13.08;100.00
61678;BME280;47575;52.054;4.334;2022-10-16T06:18:05;101344.22;;;13.08;100.00
61678;BME280;47575;52.054;4.334;2022-10-16T06:20:32;101349.47;;;13.08;100.00
61678;BME280;47575;52.054;4.334;2022-10-16T06:23:00;101363.38;;;13.11;100.00
61678;BME280;47575;52.054;4.334;2022-10-16T06:25:27;101370.38;;;13.11;100.00
61678;BME280;47575;52.054;4.334;2022-10-16T06:27:54;101367.66;;;13.14;100.00
61678;BME280;47575;52.054;4.334;2022-10-16T06:30:21;101372.94;;;13.14;100.00
61678;BME280;47575;52.054;4.334;2022-10-16T06:32:49;101372.00;;;13.15;100.00
61678;BME280;47575;52.054;4.334;2022-10-16T06:35:17;101374.63;;;13.15;100.00
61678;BME280;47575;52.054;4.334;2022-10-16T06:37:44;101379.72;;;13.21;100.00
61678;BME280;47575;52.054;4.334;2022-10-16T06:40:11;101383.16;;;13.23;100.00
61678;BME280;47575;52.054;4.334;2022-10-16T06:42:40;101393.66;;;13.23;100.00
61678;BME280;47575;52.054;4.334;2022-10-16T06:45:07;101398.84;;;13.26;100.00
61678;BME280;47575;52.054;4.334;2022-10-16T06:47:34;101403.06;;;13.30;100.00
61678;BME280;47575;52.054;4.334;2022-10-16T06:50:01;101411.88;;;13.29;100.00
61678;BME280;47575;52.054;4.334;2022-10-16T06:52:30;101404.13;;;13.24;100.00
61678;BME280;47575;52.054;4.334;2022-10-16T06:54:57;101407.81;;;13.19;100.00
61678;BME280;47575;52.054;4.334;2022-10-16T06:57:24;101414.81;;;13.18;100.00
61678;BME280;47575;52.054;4.334;2022-10-16T06:59:51;101414.88;;;13.17;100.00
61678;BME280;47575;52.054;4.334;2022-10-16T07:02:18;101418.31;;;13.19;100.00
61678;BME280;47575;52.054;4.334;2022-10-16T07:04:45;101430.59;;;13.18;100.00
61678;BME280;47575;52.054;4.334;2022-10-16T07:07:12;101432.19;;;13.24;100.00
61678;BME280;47575;52.054;4.334;2022-10-16T07:09:41;101448.69;;;13.29;100.00
61678;BME280;47575;52.054;4.334;2022-10-16T07:12:08;101456.41;;;13.34;100.00
61678;BME280;47575;52.054;4.334;2022-10-16T07:14:35;101451.16;;;13.34;100.00
61678;BME280;47575;52.054;4.334;2022-10-16T07:17:02;101453.66;;;13.37;100.00
61678;BME280;47575;52.054;4.334;2022-10-16T07:19:29;101457.16;;;13.37;100.00
61678;BME280;47575;52.054;4.334;2022-10-16T07:21:56;101466.63;;;13.43;100.00
61678;BME280;47575;52.054;4.334;2022-10-16T07:24:23;101477.75;;;13.51;100.00
61678;BME280;47575;52.054;4.334;2022-10-16T07:26:52;101478.59;;;13.51;100.00
61678;BME280;47575;52.054;4.334;2022-10-16T07:29:20;101486.16;;;13.61;100.00
61678;BME280;47575;52.054;4.334;2022-10-16T07:31:47;101493.06;;;13.63;100.00
61678;BME280;47575;52.054;4.334;2022-10-16T07:34:15;101506.63;;;13.77;100.00
61678;BME280;47575;52.054;4.334;2022-10-16T07:36:43;101502.19;;;13.79;100.00
61678;BME280;47575;52.054;4.334;2022-10-16T07:39:11;101511.53;;;13.88;100.00
61678;BME280;47575;52.054;4.334;2022-10-16T07:41:38;101518.22;;;13.97;100.00
61678;BME280;47575;52.054;4.334;2022-10-16T07:44:06;101523.75;;;14.14;100.00
61678;BME280;47575;52.054;4.334;2022-10-16T07:46:34;101531.16;;;14.53;100.00
61678;BME280;47575;52.054;4.334;2022-10-16T07:49:01;101534.13;;;14.89;100.00
61678;BME280;47575;52.054;4.334;2022-10-16T07:51:29;101541.25;;;14.87;100.00
61678;BME280;47575;52.054;4.334;2022-10-16T07:53:56;101553.34;;;15.14;100.00
61678;BME280;47575;52.054;4.334;2022-10-16T07:56:23;101561.44;;;15.54;100.00
61678;BME280;47575;52.054;4.334;2022-10-16T07:58:50;101577.34;;;15.94;100.00
61678;BME280;47575;52.054;4.334;2022-10-16T08:01:19;101578.69;;;16.44;100.00
61678;BME280;47575;52.054;4.334;2022-10-16T08:03:47;101584.28;;;16.77;100.00
61678;BME280;47575;52.054;4.334;2022-10-16T08:06:14;101589.47;;;16.97;100.00
61678;BME280;47575;52.054;4.334;2022-10-16T08:08:41;101594.88;;;17.32;100.00
61678;BME280;47575;52.054;4.334;2022-10-16T08:11:08;101594.31;;;17.61;100.00
61678;BME280;47575;52.054;4.334;2022-10-16T08:13:35;101596.38;;;18.08;100.00
61678;BME280;47575;52.054;4.334;2022-10-16T08:16:03;101588.56;;;18.22;100.00
61678;BME280;47575;52.054;4.334;2022-10-16T08:18:34;101570.78;;;18.24;100.00
61678;BME280;47575;52.054;4.334;2022-10-16T08:21:02;101557.50;;;18.26;100.00
61678;BME280;47575;52.054;4.334;2022-10-16T08:23:30;101551.19;;;18.44;100.00
61678;BME280;47575;52.054;4.334;2022-10-16T08:26:01;101530.22;;;18.40;100.00
61678;BME280;47575;52.054;4.334;2022-10-16T08:28:28;101518.50;;;18.77;100.00
61678;BME280;47575;52.054;4.334;2022-10-16T08:30:55;101521.66;;;18.99;100.00
61678;BME280;47575;52.054;4.334;2022-10-16T08:33:23;101516.47;;;19.28;100.00
61678;BME280;47575;52.054;4.334;2022-10-16T08:35:51;101503.56;;;18.43;100.00
61678;BME280;47575;52.054;4.334;2022-10-16T08:38:19;101512.94;;;17.99;100.00
61678;BME280;47575;52.054;4.334;2022-10-16T08:40:46;101513.44;;;17.20;100.00
61678;BME280;47575;52.054;4.334;2022-10-16T08:46:03;101529.88;;;17.97;100.00
61678;BME280;47575;52.054;4.334;2022-10-16T08:48:35;101535.03;;;17.83;100.00
61678;BME280;47575;52.054;4.334;2022-10-16T08:51:06;101540.03;;;18.22;100.00
61678;BME280;47575;52.054;4.334;2022-10-16T08:53:36;101542.25;;;18.30;100.00
61678;BME280;47575;52.054;4.334;2022-10-16T08:56:05;101539.66;;;18.94;100.00
61678;BME280;47575;52.054;4.334;2022-10-16T08:58:32;101542.38;;;18.44;100.00
61678;BME280;47575;52.054;4.334;2022-10-16T09:01:00;101536.09;;;17.96;100.00
61678;BME280;47575;52.054;4.334;2022-10-16T09:03:33;101543.50;;;17.89;100.00
61678;BME280;47575;52.054;4.334;2022-10-16T09:06:09;101542.31;;;17.60;100.00
61678;BME280;47575;52.054;4.334;2022-10-16T09:08:42;101562.97;;;18.06;100.00
61678;BME280;47575;52.054;4.334;2022-10-16T09:11:14;101561.34;;;18.03;100.00
61678;BME280;47575;52.054;4.334;2022-10-16T09:13:48;101565.25;;;18.29;100.00
61678;BME280;47575;52.054;4.334;2022-10-16T09:35:54;101510.25;;;20.03;100.00
61678;BME280;47575;52.054;4.334;2022-10-16T09:38:26;101511.09;;;20.32;100.00
61678;BME280;47575;52.054;4.334;2022-10-16T09:41:11;101517.75;;;20.68;100.00
61678;BME280;47575;52.054;4.334;2022-10-16T09:43:41;101506.84;;;20.01;100.00
61678;BME280;47575;52.054;4.334;2022-10-16T09:46:19;101500.00;;;20.54;100.00
61678;BME280;47575;52.054;4.334;2022-10-16T09:48:48;101489.56;;;20.23;100.00
61678;BME280;47575;52.054;4.334;2022-10-16T09:51:18;101486.81;;;20.10;100.00
61678;BME280;47575;52.054;4.334;2022-10-16T09:53:46;101492.03;;;19.97;100.00
61678;BME280;47575;52.054;4.334;2022-10-16T09:56:21;101492.41;;;19.91;100.00
61678;BME280;47575;52.054;4.334;2022-10-16T09:58:49;101493.66;;;20.28;100.00
61678;BME280;47575;52.054;4.334;2022-10-16T10:01:16;101485.59;;;20.44;100.00
61678;BME280;47575;52.054;4.334;2022-10-16T10:03:43;101485.94;;;20.38;100.00
61678;BME280;47575;52.054;4.334;2022-10-16T10:06:20;101473.69;;;20.64;100.00
61678;BME280;47575;52.054;4.334;2022-10-16T10:08:58;101473.69;;;20.91;100.00
61678;BME280;47575;52.054;4.334;2022-10-16T10:11:42;101472.84;;;21.17;100.00
61678;BME280;47575;52.054;4.334;2022-10-16T10:14:15;101480.19;;;22.04;100.00
61678;BME280;47575;52.054;4.334;2022-10-16T10:16:44;101475.41;;;21.59;100.00
61678;BME280;47575;52.054;4.334;2022-10-16T10:19:13;101472.75;;;21.71;100.00
61678;BME280;47575;52.054;4.334;2022-10-16T10:21:42;101466.13;;;21.51;100.00
61678;BME280;47575;52.054;4.334;2022-10-16T10:24:10;101469.03;;;21.61;100.00
61678;BME280;47575;52.054;4.334;2022-10-16T10:26:37;101462.94;;;21.59;100.00
61678;BME280;47575;52.054;4.334;2022-10-16T10:29:06;101464.03;;;21.69;100.00
61678;BME280;47575;52.054;4.334;2022-10-16T10:31:41;101453.72;;;21.38;100.00
61678;BME280;47575;52.054;4.334;2022-10-16T10:34:17;101460.78;;;21.12;100.00
61678;BME280;47575;52.054;4.334;2022-10-16T10:36:47;101456.72;;;21.06;100.00
61678;BME280;47575;52.054;4.334;2022-10-16T10:39:21;101457.72;;;21.18;100.00
61678;BME280;47575;52.054;4.334;2022-10-16T10:42:00;101468.47;;;21.56;100.00
61678;BME280;47575;52.054;4.334;2022-10-16T10:44:37;101472.09;;;21.80;100.00
61678;BME280;47575;52.054;4.334;2022-10-16T10:47:12;101471.84;;;21.45;100.00
61678;BME280;47575;52.054;4.334;2022-10-16T10:49:48;101470.50;;;21.65;100.00
61678;BME280;47575;52.054;4.334;2022-10-16T10:52:26;101471.38;;;21.53;100.00
61678;BME280;47575;52.054;4.334;2022-10-16T10:55:00;101461.66;;;20.44;100.00
61678;BME280;47575;52.054;4.334;2022-10-16T10:57:30;101462.09;;;20.65;100.00
61678;BME280;47575;52.054;4.334;2022-10-16T11:00:02;101464.75;;;20.65;100.00
61678;BME280;47575;52.054;4.334;2022-10-16T11:02:32;101477.31;;;20.90;100.00
61678;BME280;47575;52.054;4.334;2022-10-16T11:07:50;101483.78;;;20.59;100.00
61678;BME280;47575;52.054;4.334;2022-10-16T11:10:20;101481.69;;;20.91;100.00
61678;BME280;47575;52.054;4.334;2022-10-16T11:12:49;101491.16;;;20.68;100.00
61678;BME280;47575;52.054;4.334;2022-10-16T11:15:19;101492.44;;;20.89;100.00
61678;BME280;47575;52.054;4.334;2022-10-16T11:17:49;101488.59;;;21.20;100.00
61678;BME280;47575;52.054;4.334;2022-10-16T11:20:19;101490.50;;;21.33;100.00
61678;BME280;47575;52.054;4.334;2022-10-16T11:22:51;101498.63;;;21.56;100.00
61678;BME280;47575;52.054;4.334;2022-10-16T11:25:23;101495.06;;;21.31;100.00
61678;BME280;47575;52.054;4.334;2022-10-16T11:27:54;101494.59;;;21.64;100.00
61678;BME280;47575;52.054;4.334;2022-10-16T11:30:24;101498.34;;;20.80;100.00
61678;BME280;47575;52.054;4.334;2022-10-16T11:33:02;101495.69;;;20.80;100.00
61678;BME280;47575;52.054;4.334;2022-10-16T11:35:36;101502.50;;;20.84;100.00
61678;BME280;47575;52.054;4.334;2022-10-16T11:38:09;101503.44;;;20.56;100.00
61678;BME280;47575;52.054;4.334;2022-10-16T11:40:38;101500.00;;;20.68;100.00
61678;BME280;47575;52.054;4.334;2022-10-16T11:43:10;101506.81;;;20.87;100.00
61678;BME280;47575;52.054;4.334;2022-10-16T11:45:42;101501.13;;;20.79;100.00
61678;BME280;47575;52.054;4.334;2022-10-16T11:48:15;101514.16;;;20.55;100.00
61678;BME280;47575;52.054;4.334;2022-10-16T11:50:49;101514.91;;;20.71;100.00
61678;BME280;47575;52.054;4.334;2022-10-16T11:53:21;101511.97;;;20.61;100.00
61678;BME280;47575;52.054;4.334;2022-10-16T11:55:50;101513.50;;;20.65;100.00
61678;BME280;47575;52.054;4.334;2022-10-16T11:58:24;101521.16;;;20.70;100.00
61678;BME280;47575;52.054;4.334;2022-10-16T12:00:56;101519.03;;;20.89;100.00
61678;BME280;47575;52.054;4.334;2022-10-16T12:03:30;101516.84;;;20.96;100.00
61678;BME280;47575;52.054;4.334;2022-10-16T12:08:47;101526.69;;;20.38;100.00
61678;BME280;47575;52.054;4.334;2022-10-16T12:11:23;101526.91;;;20.50;100.00
61678;BME280;47575;52.054;4.334;2022-10-16T12:13:51;101536.28;;;20.69;100.00
61678;BME280;47575;52.054;4.334;2022-10-16T12:16:20;101521.66;;;20.48;100.00
61678;BME280;47575;52.054;4.334;2022-10-16T12:18:49;101524.34;;;20.34;100.00
61678;BME280;47575;52.054;4.334;2022-10-16T12:21:32;101530.78;;;20.30;100.00
61678;BME280;47575;52.054;4.334;2022-10-16T12:24:03;101537.22;;;20.40;100.00
61678;BME280;47575;52.054;4.334;2022-10-16T12:26:31;101525.97;;;20.51;100.00
61678;BME280;47575;52.054;4.334;2022-10-16T12:29:09;101532.09;;;20.08;100.00
61678;BME280;47575;52.054;4.334;2022-10-16T12:31:39;101536.41;;;19.67;100.00
61678;BME280;47575;52.054;4.334;2022-10-16T12:34:16;101529.59;;;19.77;100.00
61678;BME280;47575;52.054;4.334;2022-10-16T12:36:48;101537.50;;;19.62;100.00
61678;BME280;47575;52.054;4.334;2022-10-16T12:39:21;101543.09;;;19.42;100.00
61678;BME280;47575;52.054;4.334;2022-10-16T12:42:00;101534.09;;;19.60;100.00
61678;BME280;47575;52.054;4.334;2022-10-16T12:44:31;101534.25;;;19.57;100.00
61678;BME280;47575;52.054;4.334;2022-10-16T12:46:59;101527.91;;;19.44;100.00
61678;BME280;47575;52.054;4.334;2022-10-16T12:49:31;101528.94;;;19.12;100.00
61678;BME280;47575;52.054;4.334;2022-10-16T12:52:00;101529.63;;;19.15;100.00
61678;BME280;47575;52.054;4.334;2022-10-16T12:54:29;101536.44;;;19.19;100.00
61678;BME280;47575;52.054;4.334;2022-10-16T12:57:01;101529.78;;;19.12;100.00
61678;BME280;47575;52.054;4.334;2022-10-16T12:59:33;101543.81;;;19.30;100.00
61678;BME280;47575;52.054;4.334;2022-10-16T13:04:49;101537.75;;;19.12;100.00
61678;BME280;47575;52.054;4.334;2022-10-16T13:07:23;101549.56;;;19.06;100.00
61678;BME280;47575;52.054;4.334;2022-10-16T13:10:00;101544.88;;;18.80;100.00
61678;BME280;47575;52.054;4.334;2022-10-16T13:12:34;101544.97;;;18.94;100.00
61678;BME280;47575;52.054;4.334;2022-10-16T13:15:19;101555.22;;;19.16;100.00
61678;BME280;47575;52.054;4.334;2022-10-16T13:17:52;101550.22;;;19.26;100.00
61678;BME280;47575;52.054;4.334;2022-10-16T13:20:25;101555.13;;;19.18;100.00